sensor_id;sensor_type;location;lat;lon;timestamp;P1;durP1;ratioP1;P2;durP2;ratioP2
29030;SDS011;16122;50.236;11.734;2022-08-19T00:01:33;9.43;;;8.63;;
29030;SDS011;16122;50.236;11.734;2022-08-19T00:04:02;9.50;;;8.70;;
29030;SDS011;16122;50.236;11.734;2022-08-19T00:06:30;10.23;;;9.40;;
29030;SDS011;16122;50.236;11.734;2022-08-19T00:08:56;10.33;;;9.27;;
29030;SDS011;16122;50.236;11.734;2022-08-19T00:11:23;9.83;;;8.93;;
29030;SDS011;16122;50.236;11.734;2022-08-19T00:13:50;9.60;;;8.70;;
29030;SDS011;16122;50.236;11.734;2022-08-19T00:16:16;9.40;;;8.60;;
29030;SDS011;16122;50.236;11.734;2022-08-19T00:18:46;9.57;;;8.77;;
29030;SDS011;16122;50.236;11.734;2022-08-19T00:21:13;9.70;;;8.80;;
29030;SDS011;16122;50.236;11.734;2022-08-19T00:23:39;9.40;;;8.43;;
29030;SDS011;16122;50.236;11.734;2022-08-19T00:26:06;9.67;;;8.70;;
29030;SDS011;16122;50.236;11.734;2022-08-19T00:28:33;10.37;;;9.37;;
29030;SDS011;16122;50.236;11.734;2022-08-19T00:31:01;9.83;;;9.03;;
29030;SDS011;16122;50.236;11.734;2022-08-19T00:33:30;8.83;;;8.03;;
29030;SDS011;16122;50.236;11.734;2022-08-19T00:36:00;9.93;;;9.00;;
29030;SDS011;16122;50.236;11.734;2022-08-19T00:38:26;9.27;;;8.37;;
29030;SDS011;16122;50.236;11.734;2022-08-19T00:40:53;9.53;;;8.63;;
29030;SDS011;16122;50.236;11.734;2022-08-19T00:43:20;9.10;;;8.40;;
29030;SDS011;16122;50.236;11.734;2022-08-19T00:45:48;8.90;;;8.20;;
29030;SDS011;16122;50.236;11.734;2022-08-19T00:48:15;10.13;;;9.23;;
29030;SDS011;16122;50.236;11.734;2022-08-19T00:50:42;10.80;;;9.80;;
29030;SDS011;16122;50.236;11.734;2022-08-19T00:53:14;9.70;;;8.80;;
29030;SDS011;16122;50.236;11.734;2022-08-19T00:55:47;8.93;;;8.13;;
29030;SDS011;16122;50.236;11.734;2022-08-19T00:58:18;9.47;;;8.67;;
29030;SDS011;16122;50.236;11.734;2022-08-19T01:00:46;9.73;;;8.87;;
29030;SDS011;16122;50.236;11.734;2022-08-19T01:03:14;9.90;;;9.00;;
29030;SDS011;16122;50.236;11.734;2022-08-19T01:05:43;8.60;;;7.90;;
29030;SDS011;16122;50.236;11.734;2022-08-19T01:08:11;8.47;;;7.77;;
29030;SDS011;16122;50.236;11.734;2022-08-19T01:10:40;8.77;;;7.97;;
29030;SDS011;16122;50.236;11.734;2022-08-19T01:13:10;8.27;;;7.53;;
29030;SDS011;16122;50.236;11.734;2022-08-19T01:15:40;9.50;;;8.60;;
29030;SDS011;16122;50.236;11.734;2022-08-19T01:18:11;8.60;;;7.83;;
29030;SDS011;16122;50.236;11.734;2022-08-19T01:20:40;8.10;;;7.40;;
29030;SDS011;16122;50.236;11.734;2022-08-19T01:23:07;8.90;;;8.20;;
29030;SDS011;16122;50.236;11.734;2022-08-19T01:25:39;10.07;;;8.13;;
29030;SDS011;16122;50.236;11.734;2022-08-19T01:28:16;8.93;;;8.17;;
29030;SDS011;16122;50.236;11.734;2022-08-19T01:30:44;8.83;;;8.03;;
29030;SDS011;16122;50.236;11.734;2022-08-19T01:33:11;8.90;;;8.20;;
29030;SDS011;16122;50.236;11.734;2022-08-19T01:35:38;8.93;;;8.10;;
29030;SDS011;16122;50.236;11.734;2022-08-19T01:38:06;8.23;;;7.53;;
29030;SDS011;16122;50.236;11.734;2022-08-19T01:40:36;8.70;;;7.90;;
29030;SDS011;16122;50.236;11.734;2022-08-19T01:43:04;8.07;;;7.27;;
29030;SDS011;16122;50.236;11.734;2022-08-19T01:45:31;9.23;;;8.43;;
29030;SDS011;16122;50.236;11.734;2022-08-19T01:47:59;8.20;;;7.50;;
29030;SDS011;16122;50.236;11.734;2022-08-19T01:50:25;7.67;;;7.07;;
29030;SDS011;16122;50.236;11.734;2022-08-19T01:52:51;7.60;;;6.90;;
29030;SDS011;16122;50.236;11.734;2022-08-19T01:55:18;8.37;;;7.60;;
29030;SDS011;16122;50.236;11.734;2022-08-19T01:57:47;8.53;;;7.73;;
29030;SDS011;16122;50.236;11.734;2022-08-19T02:00:18;8.20;;;7.40;;
29030;SDS011;16122;50.236;11.734;2022-08-19T02:02:45;8.03;;;7.40;;
29030;SDS011;16122;50.236;11.734;2022-08-19T02:05:12;8.50;;;7.70;;
29030;SDS011;16122;50.236;11.734;2022-08-19T02:07:39;8.10;;;7.40;;
29030;SDS011;16122;50.236;11.734;2022-08-19T02:10:08;7.63;;;7.03;;
29030;SDS011;16122;50.236;11.734;2022-08-19T02:12:37;7.07;;;6.47;;
29030;SDS011;16122;50.236;11.734;2022-08-19T02:15:03;8.37;;;7.67;;
29030;SDS011;16122;50.236;11.734;2022-08-19T02:17:29;7.67;;;6.97;;
29030;SDS011;16122;50.236;11.734;2022-08-19T02:19:56;9.27;;;7.27;;
29030;SDS011;16122;50.236;11.734;2022-08-19T02:22:22;7.50;;;6.90;;
29030;SDS011;16122;50.236;11.734;2022-08-19T02:24:50;7.40;;;6.80;;
29030;SDS011;16122;50.236;11.734;2022-08-19T02:27:17;7.43;;;6.83;;
29030;SDS011;16122;50.236;11.734;2022-08-19T02:29:45;8.70;;;7.80;;
29030;SDS011;16122;50.236;11.734;2022-08-19T02:32:12;7.90;;;7.20;;
29030;SDS011;16122;50.236;11.734;2022-08-19T02:34:39;8.33;;;7.53;;
29030;SDS011;16122;50.236;11.734;2022-08-19T02:37:05;7.47;;;6.87;;
29030;SDS011;16122;50.236;11.734;2022-08-19T02:39:31;7.60;;;6.90;;
29030;SDS011;16122;50.236;11.734;2022-08-19T02:41:57;8.20;;;7.50;;
29030;SDS011;16122;50.236;11.734;2022-08-19T02:44:24;7.50;;;6.90;;
29030;SDS011;16122;50.236;11.734;2022-08-19T02:46:50;8.10;;;7.33;;
29030;SDS011;16122;50.236;11.734;2022-08-19T02:49:16;7.90;;;7.23;;
29030;SDS011;16122;50.236;11.734;2022-08-19T02:51:43;8.57;;;7.67;;
29030;SDS011;16122;50.236;11.734;2022-08-19T02:54:11;7.57;;;6.93;;
29030;SDS011;16122;50.236;11.734;2022-08-19T02:56:38;8.20;;;7.50;;
29030;SDS011;16122;50.236;11.734;2022-08-19T02:59:06;7.77;;;7.07;;
29030;SDS011;16122;50.236;11.734;2022-08-19T03:01:33;8.30;;;7.50;;
29030;SDS011;16122;50.236;11.734;2022-08-19T03:04:01;7.47;;;6.87;;
29030;SDS011;16122;50.236;11.734;2022-08-19T03:06:30;6.73;;;6.13;;
29030;SDS011;16122;50.236;11.734;2022-08-19T03:08:56;7.40;;;6.70;;
29030;SDS011;16122;50.236;11.734;2022-08-19T03:11:27;7.40;;;6.80;;
29030;SDS011;16122;50.236;11.734;2022-08-19T03:13:55;7.77;;;7.07;;
29030;SDS011;16122;50.236;11.734;2022-08-19T03:16:23;8.53;;;7.73;;
29030;SDS011;16122;50.236;11.734;2022-08-19T03:18:51;7.43;;;6.80;;
29030;SDS011;16122;50.236;11.734;2022-08-19T03:21:20;6.67;;;6.13;;
29030;SDS011;16122;50.236;11.734;2022-08-19T03:23:49;6.97;;;6.37;;
29030;SDS011;16122;50.236;11.734;2022-08-19T03:26:15;7.03;;;6.40;;
29030;SDS011;16122;50.236;11.734;2022-08-19T03:28:42;7.73;;;7.03;;
29030;SDS011;16122;50.236;11.734;2022-08-19T03:31:12;7.87;;;7.17;;
29030;SDS011;16122;50.236;11.734;2022-08-19T03:33:39;7.13;;;6.53;;
29030;SDS011;16122;50.236;11.734;2022-08-19T03:36:07;7.60;;;6.90;;
29030;SDS011;16122;50.236;11.734;2022-08-19T03:38:36;7.63;;;6.93;;
29030;SDS011;16122;50.236;11.734;2022-08-19T03:41:07;7.40;;;6.80;;
29030;SDS011;16122;50.236;11.734;2022-08-19T03:43:35;8.30;;;7.57;;
29030;SDS011;16122;50.236;11.734;2022-08-19T03:46:03;7.50;;;6.90;;
29030;SDS011;16122;50.236;11.734;2022-08-19T03:48:32;7.13;;;6.43;;
29030;SDS011;16122;50.236;11.734;2022-08-19T03:50:59;7.97;;;7.27;;
29030;SDS011;16122;50.236;11.734;2022-08-19T03:53:26;7.13;;;6.50;;
29030;SDS011;16122;50.236;11.734;2022-08-19T03:55:53;8.40;;;7.60;;
29030;SDS011;16122;50.236;11.734;2022-08-19T03:58:19;7.60;;;6.90;;
29030;SDS011;16122;50.236;11.734;2022-08-19T04:00:47;6.73;;;6.23;;
29030;SDS011;16122;50.236;11.734;2022-08-19T04:03:13;7.53;;;6.93;;
29030;SDS011;16122;50.236;11.734;2022-08-19T04:05:39;7.83;;;7.13;;
29030;SDS011;16122;50.236;11.734;2022-08-19T04:08:04;6.97;;;6.27;;
29030;SDS011;16122;50.236;11.734;2022-08-19T04:10:34;7.20;;;6.47;;
29030;SDS011;16122;50.236;11.734;2022-08-19T04:13:02;7.53;;;6.90;;
29030;SDS011;16122;50.236;11.734;2022-08-19T04:15:29;7.10;;;6.50;;
29030;SDS011;16122;50.236;11.734;2022-08-19T04:17:56;7.30;;;6.70;;
29030;SDS011;16122;50.236;11.734;2022-08-19T04:20:22;7.60;;;7.00;;
29030;SDS011;16122;50.236;11.734;2022-08-19T04:22:48;7.63;;;6.93;;
29030;SDS011;16122;50.236;11.734;2022-08-19T04:25:14;6.77;;;6.17;;
29030;SDS011;16122;50.236;11.734;2022-08-19T04:27:40;6.67;;;6.07;;
29030;SDS011;16122;50.236;11.734;2022-08-19T04:30:08;7.47;;;6.83;;
29030;SDS011;16122;50.236;11.734;2022-08-19T04:32:35;7.63;;;6.83;;
29030;SDS011;16122;50.236;11.734;2022-08-19T04:35:00;8.43;;;7.50;;
29030;SDS011;16122;50.236;11.734;2022-08-19T04:37:26;7.93;;;7.10;;
29030;SDS011;16122;50.236;11.734;2022-08-19T04:39:52;7.17;;;6.47;;
29030;SDS011;16122;50.236;11.734;2022-08-19T04:42:37;8.53;;;7.67;;
29030;SDS011;16122;50.236;11.734;2022-08-19T04:45:07;10.47;;;7.40;;
29030;SDS011;16122;50.236;11.734;2022-08-19T04:47:36;10.57;;;8.33;;
29030;SDS011;16122;50.236;11.734;2022-08-19T04:50:03;11.50;;;7.17;;
29030;SDS011;16122;50.236;11.734;2022-08-19T04:52:29;11.50;;;7.33;;
29030;SDS011;16122;50.236;11.734;2022-08-19T04:54:56;12.87;;;7.43;;
29030;SDS011;16122;50.236;11.734;2022-08-19T04:57:23;8.70;;;7.57;;
29030;SDS011;16122;50.236;11.734;2022-08-19T04:59:49;7.80;;;7.00;;
29030;SDS011;16122;50.236;11.734;2022-08-19T05:02:18;7.37;;;6.57;;
29030;SDS011;16122;50.236;11.734;2022-08-19T05:04:44;7.40;;;6.80;;
29030;SDS011;16122;50.236;11.734;2022-08-19T05:07:10;7.50;;;6.77;;
29030;SDS011;16122;50.236;11.734;2022-08-19T05:09:36;7.00;;;6.40;;
29030;SDS011;16122;50.236;11.734;2022-08-19T05:12:02;8.90;;;7.17;;
29030;SDS011;16122;50.236;11.734;2022-08-19T05:14:28;9.17;;;6.70;;
29030;SDS011;16122;50.236;11.734;2022-08-19T05:16:54;8.07;;;7.03;;
29030;SDS011;16122;50.236;11.734;2022-08-19T05:19:21;8.13;;;6.30;;
29030;SDS011;16122;50.236;11.734;2022-08-19T05:22:05;8.00;;;7.20;;
29030;SDS011;16122;50.236;11.734;2022-08-19T05:24:50;7.80;;;6.77;;
29030;SDS011;16122;50.236;11.734;2022-08-19T05:27:16;7.13;;;6.43;;
29030;SDS011;16122;50.236;11.734;2022-08-19T05:29:42;9.87;;;7.23;;
29030;SDS011;16122;50.236;11.734;2022-08-19T05:32:08;7.40;;;6.70;;
29030;SDS011;16122;50.236;11.734;2022-08-19T05:34:35;7.37;;;6.67;;
29030;SDS011;16122;50.236;11.734;2022-08-19T05:37:03;7.27;;;6.67;;
29030;SDS011;16122;50.236;11.734;2022-08-19T05:39:33;10.67;;;6.77;;
29030;SDS011;16122;50.236;11.734;2022-08-19T05:42:06;7.27;;;6.57;;
29030;SDS011;16122;50.236;11.734;2022-08-19T05:44:35;9.23;;;6.33;;
29030;SDS011;16122;50.236;11.734;2022-08-19T05:47:04;7.60;;;6.83;;
29030;SDS011;16122;50.236;11.734;2022-08-19T05:49:32;9.20;;;6.77;;
29030;SDS011;16122;50.236;11.734;2022-08-19T05:51:58;7.40;;;5.90;;
29030;SDS011;16122;50.236;11.734;2022-08-19T05:54:28;8.13;;;6.87;;
29030;SDS011;16122;50.236;11.734;2022-08-19T05:56:55;7.63;;;6.63;;
29030;SDS011;16122;50.236;11.734;2022-08-19T05:59:21;7.67;;;6.87;;
29030;SDS011;16122;50.236;11.734;2022-08-19T06:01:49;7.47;;;6.70;;
29030;SDS011;16122;50.236;11.734;2022-08-19T06:04:20;7.07;;;6.47;;
29030;SDS011;16122;50.236;11.734;2022-08-19T06:06:47;7.87;;;7.07;;
29030;SDS011;16122;50.236;11.734;2022-08-19T06:09:17;7.23;;;6.53;;
29030;SDS011;16122;50.236;11.734;2022-08-19T06:11:44;7.57;;;6.77;;
29030;SDS011;16122;50.236;11.734;2022-08-19T06:14:21;7.87;;;7.07;;
29030;SDS011;16122;50.236;11.734;2022-08-19T06:16:48;6.83;;;6.13;;
29030;SDS011;16122;50.236;11.734;2022-08-19T06:19:18;6.77;;;5.97;;
29030;SDS011;16122;50.236;11.734;2022-08-19T06:21:47;7.53;;;6.80;;
29030;SDS011;16122;50.236;11.734;2022-08-19T06:24:16;6.60;;;5.90;;
29030;SDS011;16122;50.236;11.734;2022-08-19T06:26:45;7.17;;;6.40;;
29030;SDS011;16122;50.236;11.734;2022-08-19T06:29:13;8.93;;;6.60;;
29030;SDS011;16122;50.236;11.734;2022-08-19T06:31:41;7.27;;;5.80;;
29030;SDS011;16122;50.236;11.734;2022-08-19T06:34:09;7.10;;;6.27;;
29030;SDS011;16122;50.236;11.734;2022-08-19T06:36:36;7.97;;;6.30;;
29030;SDS011;16122;50.236;11.734;2022-08-19T06:39:07;6.20;;;5.60;;
29030;SDS011;16122;50.236;11.734;2022-08-19T06:41:40;8.67;;;5.87;;
29030;SDS011;16122;50.236;11.734;2022-08-19T06:44:15;6.77;;;5.80;;
29030;SDS011;16122;50.236;11.734;2022-08-19T06:46:41;7.20;;;6.50;;
29030;SDS011;16122;50.236;11.734;2022-08-19T06:49:08;6.83;;;6.13;;
29030;SDS011;16122;50.236;11.734;2022-08-19T06:51:38;7.27;;;6.57;;
29030;SDS011;16122;50.236;11.734;2022-08-19T06:54:09;6.93;;;6.27;;
29030;SDS011;16122;50.236;11.734;2022-08-19T06:56:35;6.33;;;5.73;;
29030;SDS011;16122;50.236;11.734;2022-08-19T06:59:09;5.77;;;5.27;;
29030;SDS011;16122;50.236;11.734;2022-08-19T07:01:38;7.57;;;6.20;;
29030;SDS011;16122;50.236;11.734;2022-08-19T07:04:10;6.90;;;6.10;;
29030;SDS011;16122;50.236;11.734;2022-08-19T07:06:37;7.33;;;6.33;;
29030;SDS011;16122;50.236;11.734;2022-08-19T07:09:03;6.60;;;6.00;;
29030;SDS011;16122;50.236;11.734;2022-08-19T07:11:30;6.47;;;5.87;;
29030;SDS011;16122;50.236;11.734;2022-08-19T07:13:58;7.10;;;6.30;;
29030;SDS011;16122;50.236;11.734;2022-08-19T07:16:24;7.37;;;6.43;;
29030;SDS011;16122;50.236;11.734;2022-08-19T07:18:52;6.73;;;6.00;;
29030;SDS011;16122;50.236;11.734;2022-08-19T07:21:20;8.30;;;6.47;;
29030;SDS011;16122;50.236;11.734;2022-08-19T07:23:49;7.63;;;6.30;;
29030;SDS011;16122;50.236;11.734;2022-08-19T07:26:22;9.00;;;6.50;;
29030;SDS011;16122;50.236;11.734;2022-08-19T07:28:50;7.67;;;6.60;;
29030;SDS011;16122;50.236;11.734;2022-08-19T07:31:18;7.67;;;6.83;;
29030;SDS011;16122;50.236;11.734;2022-08-19T07:33:46;7.50;;;6.70;;
29030;SDS011;16122;50.236;11.734;2022-08-19T07:36:15;7.43;;;6.73;;
29030;SDS011;16122;50.236;11.734;2022-08-19T07:38:44;7.30;;;6.50;;
29030;SDS011;16122;50.236;11.734;2022-08-19T07:41:17;8.93;;;6.87;;
29030;SDS011;16122;50.236;11.734;2022-08-19T07:43:45;7.60;;;6.90;;
29030;SDS011;16122;50.236;11.734;2022-08-19T07:46:12;6.77;;;6.17;;
29030;SDS011;16122;50.236;11.734;2022-08-19T07:48:40;7.60;;;6.80;;
29030;SDS011;16122;50.236;11.734;2022-08-19T07:51:07;7.07;;;6.43;;
29030;SDS011;16122;50.236;11.734;2022-08-19T07:53:35;8.50;;;6.80;;
29030;SDS011;16122;50.236;11.734;2022-08-19T07:56:03;7.03;;;6.07;;
29030;SDS011;16122;50.236;11.734;2022-08-19T07:58:31;7.40;;;6.70;;
29030;SDS011;16122;50.236;11.734;2022-08-19T08:01:02;6.87;;;6.23;;
29030;SDS011;16122;50.236;11.734;2022-08-19T08:03:30;7.60;;;6.60;;
29030;SDS011;16122;50.236;11.734;2022-08-19T08:06:15;7.57;;;6.77;;
29030;SDS011;16122;50.236;11.734;2022-08-19T08:09:00;7.40;;;6.37;;
29030;SDS011;16122;50.236;11.734;2022-08-19T08:11:39;6.40;;;5.53;;
29030;SDS011;16122;50.236;11.734;2022-08-19T08:14:19;7.37;;;6.53;;
29030;SDS011;16122;50.236;11.734;2022-08-19T08:16:47;8.37;;;7.50;;
29030;SDS011;16122;50.236;11.734;2022-08-19T08:19:15;7.10;;;6.40;;
29030;SDS011;16122;50.236;11.734;2022-08-19T08:21:42;8.27;;;6.67;;
29030;SDS011;16122;50.236;11.734;2022-08-19T08:24:08;6.90;;;6.20;;
29030;SDS011;16122;50.236;11.734;2022-08-19T08:26:34;7.00;;;6.40;;
29030;SDS011;16122;50.236;11.734;2022-08-19T08:29:00;7.27;;;6.57;;
29030;SDS011;16122;50.236;11.734;2022-08-19T08:31:26;7.13;;;6.40;;
29030;SDS011;16122;50.236;11.734;2022-08-19T08:33:53;7.30;;;6.60;;
29030;SDS011;16122;50.236;11.734;2022-08-19T08:36:19;6.97;;;6.27;;
29030;SDS011;16122;50.236;11.734;2022-08-19T08:38:46;9.70;;;6.23;;
29030;SDS011;16122;50.236;11.734;2022-08-19T08:44:03;8.73;;;6.27;;
29030;SDS011;16122;50.236;11.734;2022-08-19T08:54:04;18.47;;;13.90;;
29030;SDS011;16122;50.236;11.734;2022-08-19T08:56:31;21.80;;;17.90;;
29030;SDS011;16122;50.236;11.734;2022-08-19T08:58:59;21.87;;;19.03;;
29030;SDS011;16122;50.236;11.734;2022-08-19T09:01:32;20.97;;;17.13;;
29030;SDS011;16122;50.236;11.734;2022-08-19T09:03:57;21.30;;;18.17;;
29030;SDS011;16122;50.236;11.734;2022-08-19T09:09:17;21.83;;;18.60;;
29030;SDS011;16122;50.236;11.734;2022-08-19T09:12:00;20.33;;;16.40;;
29030;SDS011;16122;50.236;11.734;2022-08-19T09:14:39;19.80;;;17.80;;
29030;SDS011;16122;50.236;11.734;2022-08-19T09:17:12;19.77;;;17.40;;
29030;SDS011;16122;50.236;11.734;2022-08-19T09:22:19;21.77;;;17.77;;
29030;SDS011;16122;50.236;11.734;2022-08-19T09:24:49;20.20;;;18.00;;
29030;SDS011;16122;50.236;11.734;2022-08-19T09:27:17;23.77;;;19.00;;
29030;SDS011;16122;50.236;11.734;2022-08-19T09:29:45;23.30;;;19.73;;
29030;SDS011;16122;50.236;11.734;2022-08-19T09:32:13;26.20;;;19.93;;
29030;SDS011;16122;50.236;11.734;2022-08-19T09:34:39;25.30;;;21.43;;
29030;SDS011;16122;50.236;11.734;2022-08-19T09:37:06;24.27;;;20.83;;
29030;SDS011;16122;50.236;11.734;2022-08-19T09:39:32;30.00;;;22.80;;
29030;SDS011;16122;50.236;11.734;2022-08-19T09:41:58;26.03;;;20.97;;
29030;SDS011;16122;50.236;11.734;2022-08-19T09:44:24;32.37;;;21.70;;
29030;SDS011;16122;50.236;11.734;2022-08-19T09:46:50;28.10;;;22.20;;
29030;SDS011;16122;50.236;11.734;2022-08-19T09:49:17;27.97;;;21.70;;
29030;SDS011;16122;50.236;11.734;2022-08-19T09:51:45;26.00;;;21.43;;
29030;SDS011;16122;50.236;11.734;2022-08-19T09:54:15;26.83;;;21.20;;
29030;SDS011;16122;50.236;11.734;2022-08-19T09:56:41;25.53;;;20.67;;
29030;SDS011;16122;50.236;11.734;2022-08-19T09:59:08;26.50;;;22.03;;
29030;SDS011;16122;50.236;11.734;2022-08-19T10:01:34;27.33;;;23.10;;
29030;SDS011;16122;50.236;11.734;2022-08-19T10:04:00;30.37;;;23.63;;
29030;SDS011;16122;50.236;11.734;2022-08-19T10:06:29;30.13;;;24.80;;
29030;SDS011;16122;50.236;11.734;2022-08-19T10:08:58;31.17;;;23.37;;
29030;SDS011;16122;50.236;11.734;2022-08-19T10:11:25;25.67;;;21.00;;
29030;SDS011;16122;50.236;11.734;2022-08-19T10:13:51;30.63;;;24.27;;
29030;SDS011;16122;50.236;11.734;2022-08-19T10:16:19;29.63;;;24.20;;
29030;SDS011;16122;50.236;11.734;2022-08-19T10:18:47;32.70;;;25.30;;
29030;SDS011;16122;50.236;11.734;2022-08-19T10:21:15;30.27;;;25.67;;
29030;SDS011;16122;50.236;11.734;2022-08-19T10:23:44;29.53;;;24.57;;
29030;SDS011;16122;50.236;11.734;2022-08-19T10:26:13;30.50;;;22.90;;
29030;SDS011;16122;50.236;11.734;2022-08-19T10:28:41;31.00;;;24.67;;
29030;SDS011;16122;50.236;11.734;2022-08-19T10:31:08;27.60;;;22.13;;
29030;SDS011;16122;50.236;11.734;2022-08-19T10:33:37;27.80;;;21.70;;
29030;SDS011;16122;50.236;11.734;2022-08-19T10:36:05;24.80;;;20.97;;
29030;SDS011;16122;50.236;11.734;2022-08-19T10:38:34;31.67;;;20.83;;
29030;SDS011;16122;50.236;11.734;2022-08-19T10:41:13;28.63;;;22.43;;
29030;SDS011;16122;50.236;11.734;2022-08-19T10:43:44;26.10;;;20.60;;
29030;SDS011;16122;50.236;11.734;2022-08-19T10:46:12;24.57;;;20.07;;
29030;SDS011;16122;50.236;11.734;2022-08-19T10:48:40;25.13;;;20.00;;
29030;SDS011;16122;50.236;11.734;2022-08-19T10:51:07;23.33;;;19.57;;
29030;SDS011;16122;50.236;11.734;2022-08-19T10:53:52;23.23;;;17.20;;
29030;SDS011;16122;50.236;11.734;2022-08-19T10:56:18;18.77;;;16.20;;
29030;SDS011;16122;50.236;11.734;2022-08-19T10:59:03;20.27;;;16.33;;
29030;SDS011;16122;50.236;11.734;2022-08-19T11:01:29;21.50;;;15.80;;
29030;SDS011;16122;50.236;11.734;2022-08-19T11:03:59;21.93;;;15.70;;
29030;SDS011;16122;50.236;11.734;2022-08-19T11:06:31;17.97;;;15.60;;
29030;SDS011;16122;50.236;11.734;2022-08-19T11:08:57;16.00;;;12.20;;
29030;SDS011;16122;50.236;11.734;2022-08-19T11:11:25;14.97;;;12.80;;
29030;SDS011;16122;50.236;11.734;2022-08-19T11:13:53;15.30;;;13.27;;
29030;SDS011;16122;50.236;11.734;2022-08-19T11:16:21;15.20;;;12.10;;
29030;SDS011;16122;50.236;11.734;2022-08-19T11:18:52;13.43;;;12.03;;
29030;SDS011;16122;50.236;11.734;2022-08-19T11:21:24;14.93;;;11.40;;
29030;SDS011;16122;50.236;11.734;2022-08-19T11:23:59;13.23;;;11.37;;
29030;SDS011;16122;50.236;11.734;2022-08-19T11:26:28;13.00;;;10.70;;
29030;SDS011;16122;50.236;11.734;2022-08-19T11:28:56;13.07;;;11.70;;
29030;SDS011;16122;50.236;11.734;2022-08-19T11:31:24;13.20;;;11.90;;
29030;SDS011;16122;50.236;11.734;2022-08-19T11:33:52;13.17;;;10.33;;
29030;SDS011;16122;50.236;11.734;2022-08-19T11:36:20;13.83;;;11.20;;
29030;SDS011;16122;50.236;11.734;2022-08-19T11:38:47;13.33;;;11.97;;
29030;SDS011;16122;50.236;11.734;2022-08-19T11:41:14;11.77;;;10.67;;
29030;SDS011;16122;50.236;11.734;2022-08-19T11:43:42;13.07;;;11.77;;
29030;SDS011;16122;50.236;11.734;2022-08-19T11:46:09;11.77;;;10.10;;
29030;SDS011;16122;50.236;11.734;2022-08-19T11:48:38;11.53;;;10.33;;
29030;SDS011;16122;50.236;11.734;2022-08-19T11:51:05;13.60;;;12.10;;
29030;SDS011;16122;50.236;11.734;2022-08-19T11:53:33;13.53;;;12.13;;
29030;SDS011;16122;50.236;11.734;2022-08-19T11:56:00;16.50;;;13.53;;
29030;SDS011;16122;50.236;11.734;2022-08-19T11:58:28;15.30;;;13.57;;
29030;SDS011;16122;50.236;11.734;2022-08-19T12:00:57;14.70;;;13.20;;
29030;SDS011;16122;50.236;11.734;2022-08-19T12:03:23;13.40;;;12.10;;
29030;SDS011;16122;50.236;11.734;2022-08-19T12:05:49;14.23;;;12.50;;
29030;SDS011;16122;50.236;11.734;2022-08-19T12:08:16;12.13;;;10.87;;
29030;SDS011;16122;50.236;11.734;2022-08-19T12:10:43;12.70;;;10.73;;
29030;SDS011;16122;50.236;11.734;2022-08-19T12:13:11;11.53;;;10.43;;
29030;SDS011;16122;50.236;11.734;2022-08-19T12:15:44;10.30;;;9.30;;
29030;SDS011;16122;50.236;11.734;2022-08-19T12:18:11;11.70;;;9.80;;
29030;SDS011;16122;50.236;11.734;2022-08-19T12:20:39;9.50;;;8.60;;
29030;SDS011;16122;50.236;11.734;2022-08-19T12:23:07;9.13;;;8.23;;
29030;SDS011;16122;50.236;11.734;2022-08-19T12:25:37;8.93;;;8.13;;
29030;SDS011;16122;50.236;11.734;2022-08-19T12:28:13;7.57;;;6.87;;
29030;SDS011;16122;50.236;11.734;2022-08-19T12:30:39;8.50;;;7.70;;
29030;SDS011;16122;50.236;11.734;2022-08-19T12:33:05;12.80;;;9.13;;
29030;SDS011;16122;50.236;11.734;2022-08-19T12:35:30;10.27;;;9.20;;
29030;SDS011;16122;50.236;11.734;2022-08-19T12:37:56;9.80;;;8.80;;
29030;SDS011;16122;50.236;11.734;2022-08-19T12:40:22;10.00;;;8.10;;
29030;SDS011;16122;50.236;11.734;2022-08-19T12:42:48;9.20;;;8.30;;
29030;SDS011;16122;50.236;11.734;2022-08-19T12:45:16;9.63;;;7.90;;
29030;SDS011;16122;50.236;11.734;2022-08-19T12:47:42;8.20;;;7.40;;
29030;SDS011;16122;50.236;11.734;2022-08-19T12:50:08;8.27;;;7.53;;
29030;SDS011;16122;50.236;11.734;2022-08-19T12:52:35;8.20;;;7.40;;
29030;SDS011;16122;50.236;11.734;2022-08-19T12:55:07;8.17;;;7.03;;
29030;SDS011;16122;50.236;11.734;2022-08-19T12:57:34;7.67;;;6.97;;
29030;SDS011;16122;50.236;11.734;2022-08-19T13:00:03;7.73;;;6.93;;
29030;SDS011;16122;50.236;11.734;2022-08-19T13:02:31;7.53;;;6.77;;
29030;SDS011;16122;50.236;11.734;2022-08-19T13:04:57;7.23;;;6.50;;
29030;SDS011;16122;50.236;11.734;2022-08-19T13:07:23;7.67;;;6.70;;
29030;SDS011;16122;50.236;11.734;2022-08-19T13:09:51;6.93;;;6.43;;
29030;SDS011;16122;50.236;11.734;2022-08-19T13:12:17;8.07;;;7.37;;
29030;SDS011;16122;50.236;11.734;2022-08-19T13:14:46;6.67;;;6.03;;
29030;SDS011;16122;50.236;11.734;2022-08-19T13:17:16;7.87;;;6.73;;
29030;SDS011;16122;50.236;11.734;2022-08-19T13:19:41;7.60;;;6.87;;
29030;SDS011;16122;50.236;11.734;2022-08-19T13:22:07;8.63;;;7.40;;
29030;SDS011;16122;50.236;11.734;2022-08-19T13:24:33;9.27;;;7.60;;
29030;SDS011;16122;50.236;11.734;2022-08-19T13:27:00;7.80;;;6.53;;
29030;SDS011;16122;50.236;11.734;2022-08-19T13:29:26;6.47;;;5.87;;
29030;SDS011;16122;50.236;11.734;2022-08-19T13:32:10;7.40;;;6.43;;
29030;SDS011;16122;50.236;11.734;2022-08-19T13:34:55;7.57;;;6.80;;
29030;SDS011;16122;50.236;11.734;2022-08-19T13:37:21;6.83;;;6.23;;
29030;SDS011;16122;50.236;11.734;2022-08-19T13:40:10;8.63;;;7.80;;
29030;SDS011;16122;50.236;11.734;2022-08-19T13:42:40;7.50;;;6.80;;
29030;SDS011;16122;50.236;11.734;2022-08-19T13:45:11;9.13;;;7.90;;
29030;SDS011;16122;50.236;11.734;2022-08-19T13:47:40;8.77;;;7.87;;
29030;SDS011;16122;50.236;11.734;2022-08-19T13:50:10;10.63;;;9.47;;
29030;SDS011;16122;50.236;11.734;2022-08-19T13:52:37;9.10;;;8.10;;
29030;SDS011;16122;50.236;11.734;2022-08-19T13:55:04;8.80;;;8.00;;
29030;SDS011;16122;50.236;11.734;2022-08-19T13:57:31;9.30;;;8.40;;
29030;SDS011;16122;50.236;11.734;2022-08-19T13:59:58;10.33;;;8.57;;
29030;SDS011;16122;50.236;11.734;2022-08-19T14:02:24;10.50;;;9.40;;
29030;SDS011;16122;50.236;11.734;2022-08-19T14:04:51;8.90;;;8.07;;
29030;SDS011;16122;50.236;11.734;2022-08-19T14:07:17;9.27;;;8.40;;
29030;SDS011;16122;50.236;11.734;2022-08-19T14:09:43;10.70;;;9.33;;
29030;SDS011;16122;50.236;11.734;2022-08-19T14:12:09;10.27;;;8.40;;
29030;SDS011;16122;50.236;11.734;2022-08-19T14:14:36;10.40;;;9.40;;
29030;SDS011;16122;50.236;11.734;2022-08-19T14:17:06;11.97;;;10.53;;
29030;SDS011;16122;50.236;11.734;2022-08-19T14:19:33;10.33;;;9.30;;
29030;SDS011;16122;50.236;11.734;2022-08-19T14:21:59;10.67;;;9.57;;
29030;SDS011;16122;50.236;11.734;2022-08-19T14:24:25;10.43;;;9.43;;
29030;SDS011;16122;50.236;11.734;2022-08-19T14:26:51;10.23;;;8.97;;
29030;SDS011;16122;50.236;11.734;2022-08-19T14:29:17;10.03;;;9.03;;
29030;SDS011;16122;50.236;11.734;2022-08-19T14:31:43;11.00;;;9.77;;
29030;SDS011;16122;50.236;11.734;2022-08-19T14:34:09;12.53;;;10.30;;
29030;SDS011;16122;50.236;11.734;2022-08-19T14:36:36;10.90;;;8.90;;
29030;SDS011;16122;50.236;11.734;2022-08-19T14:39:02;9.70;;;8.80;;
29030;SDS011;16122;50.236;11.734;2022-08-19T14:41:29;10.67;;;9.17;;
29030;SDS011;16122;50.236;11.734;2022-08-19T14:43:56;11.40;;;10.20;;
29030;SDS011;16122;50.236;11.734;2022-08-19T14:46:24;11.70;;;10.50;;
29030;SDS011;16122;50.236;11.734;2022-08-19T14:48:51;17.10;;;14.67;;